CheckWX is a tool to help pilots better visualize weather data.  It is not intended as a substitute for an official pre-flight weather briefing.

12:23:40 UTC

EDVE TAF
Braunschweig Wolfsburg Airport
Germany
TAF EDVE 221100Z 2212/2221 15007KT CAVOK

Mar-22@
12:00 UTC

Mar-22 @ 12:00 UTC

Mar-22@
21:00 UTC

Mar-22 @ 21:00 UTC

TAF EDVE 221100Z 2212/2221 15007KT CAVOK
Wind
  • 150° at 7 KTS
Conditions
No significant weather
Cloud Levels
  • No significant clouds